Time;durP1;ratioP1;P1;durP2;ratioP2;P2;SDS_P1;SDS_P2;PMS_P1;PMS_P2;Temp;Humidity;BMP_temperature;BMP_pressure;BME280_temperature;BME280_humidity;BME280_pressure;Samples;Min_cycle;Max_cycle;Signal;HPM_P1;HPM_P2
2020/12/01 00:01:50;;;;;;;17.77;11.10;;;5.40;89.00;;;;;;5104339;28;20022;-69
2020/12/01 00:04:16;;;;;;;16.70;10.80;;;5.50;88.80;;;;;;5097588;28;20078;-70
2020/12/01 00:06:42;;;;;;;17.70;10.93;;;5.50;88.60;;;;;;5092103;28;20450;-69
2020/12/01 00:09:07;;;;;;;18.38;11.15;;;5.50;88.70;;;;;;5093702;28;20020;-69
2020/12/01 00:11:33;;;;;;;16.25;10.48;;;5.50;88.50;;;;;;5112013;28;20543;-70
2020/12/01 00:13:58;;;;;;;16.52;11.52;;;5.50;88.60;;;;;;5097029;28;20028;-69
2020/12/01 00:16:24;;;;;;;16.05;10.18;;;5.40;88.50;;;;;;5093445;28;20384;-70
2020/12/01 00:18:49;;;;;;;16.70;11.15;;;5.50;88.40;;;;;;5105734;28;20035;-70
2020/12/01 00:21:17;;;;;;;17.50;11.35;;;5.50;88.40;;;;;;5099409;28;20343;-70
2020/12/01 00:23:43;;;;;;;16.30;11.30;;;5.50;88.30;;;;;;5092396;28;20036;-70
2020/12/01 00:26:27;;;;;;;17.80;10.73;;;5.50;88.20;;;;;;5093110;28;20070;-69
2020/12/01 00:28:53;;;;;;;18.20;11.57;;;5.50;88.20;;;;;;5097355;28;20036;-69
2020/12/01 00:31:21;;;;;;;16.95;10.82;;;5.50;88.10;;;;;;5093043;28;20038;-69
2020/12/01 00:33:47;;;;;;;14.90;10.57;;;5.50;88.10;;;;;;5104469;28;20476;-68
2020/12/01 00:36:13;;;;;;;18.65;11.48;;;5.50;87.90;;;;;;5113118;28;20023;-68
2020/12/01 00:38:40;;;;;;;17.30;11.02;;;5.60;87.90;;;;;;5100713;28;20035;-70
2020/12/01 00:41:08;;;;;;;17.50;10.55;;;5.60;87.80;;;;;;5092416;28;20605;-70
2020/12/01 00:43:34;;;;;;;15.80;10.63;;;5.60;87.70;;;;;;5075007;28;20060;-69
2020/12/01 00:45:59;;;;;;;16.77;10.90;;;5.60;87.60;;;;;;5092428;28;20419;-68
2020/12/01 00:48:25;;;;;;;16.10;10.23;;;5.60;87.50;;;;;;5093245;28;20028;-70
2020/12/01 00:50:51;;;;;;;17.88;11.23;;;5.50;87.40;;;;;;5092374;28;20035;-70
2020/12/01 00:53:16;;;;;;;17.40;11.32;;;5.60;87.50;;;;;;5097953;28;20051;-69
2020/12/01 00:55:42;;;;;;;17.20;10.68;;;5.60;87.40;;;;;;5096922;28;20028;-69
2020/12/01 00:58:08;;;;;;;17.08;11.45;;;5.60;87.30;;;;;;5102577;28;20078;-68
2020/12/01 01:00:33;;;;;;;18.48;11.07;;;5.60;87.30;;;;;;5092555;28;20375;-70
2020/12/01 01:02:59;;;;;;;15.75;11.07;;;5.60;87.30;;;;;;5092133;28;20013;-70
2020/12/01 01:05:26;;;;;;;17.88;11.35;;;5.60;87.20;;;;;;5075639;28;20044;-69
2020/12/01 01:07:51;;;;;;;18.10;10.40;;;5.60;87.20;;;;;;5111264;28;20020;-70
2020/12/01 01:10:27;;;;;;;15.73;10.25;;;5.60;87.30;;;;;;5099849;28;20016;-70
2020/12/01 01:12:53;;;;;;;17.65;11.18;;;5.60;87.30;;;;;;5092080;28;20101;-72
2020/12/01 01:15:22;;;;;;;16.73;10.45;;;5.60;87.20;;;;;;5092130;28;20024;-73
2020/12/01 01:17:47;;;;;;;17.73;11.13;;;5.60;87.20;;;;;;5094955;28;20023;-74
2020/12/01 01:20:13;;;;;;;15.88;10.70;;;5.60;87.10;;;;;;5112237;28;20016;-73
2020/12/01 01:22:38;;;;;;;16.88;11.35;;;5.60;87.10;;;;;;5089843;28;20023;-73
2020/12/01 01:25:05;;;;;;;19.17;11.45;;;5.60;87.10;;;;;;5091971;28;20107;-69
2020/12/01 01:27:30;;;;;;;15.50;10.85;;;5.60;87.00;;;;;;5092789;28;20016;-70
2020/12/01 01:29:56;;;;;;;17.55;11.07;;;5.60;87.10;;;;;;5091966;28;20506;-67
2020/12/01 01:32:21;;;;;;;17.10;11.13;;;5.60;87.00;;;;;;5093054;28;20051;-69
2020/12/01 01:34:46;;;;;;;18.33;11.90;;;5.60;86.90;;;;;;5110853;28;20031;-70
2020/12/01 01:37:12;;;;;;;18.38;10.80;;;5.60;87.00;;;;;;5104570;28;20036;-69
2020/12/01 01:39:38;;;;;;;16.75;10.77;;;5.70;86.90;;;;;;5093562;28;20468;-69
2020/12/01 01:42:07;;;;;;;19.60;12.10;;;5.70;86.90;;;;;;5100402;28;20519;-69
2020/12/01 01:44:33;;;;;;;17.60;11.23;;;5.70;86.80;;;;;;5110987;28;20054;-69
2020/12/01 01:47:05;;;;;;;18.27;11.95;;;5.70;86.70;;;;;;5101248;28;20471;-69
2020/12/01 01:49:40;;;;;;;18.95;11.43;;;5.70;86.70;;;;;;5106588;28;20038;-69
2020/12/01 01:52:24;;;;;;;18.35;11.80;;;5.70;86.50;;;;;;5111710;28;20059;-69
2020/12/01 01:54:57;;;;;;;19.23;11.93;;;5.70;86.50;;;;;;5073377;28;20052;-69
2020/12/01 01:57:24;;;;;;;17.27;11.00;;;5.70;86.50;;;;;;5091980;28;20077;-68
2020/12/01 01:59:50;;;;;;;17.85;10.98;;;5.70;86.30;;;;;;5092831;28;20078;-69
2020/12/01 02:02:16;;;;;;;17.80;11.23;;;5.70;86.30;;;;;;5072670;28;20032;-69
2020/12/01 02:04:41;;;;;;;17.63;11.88;;;5.70;86.30;;;;;;5091233;28;20674;-69
2020/12/01 02:07:07;;;;;;;15.32;11.52;;;5.70;86.20;;;;;;5105763;28;20107;-69
2020/12/01 02:09:38;;;;;;;19.63;11.98;;;5.70;86.20;;;;;;5096257;28;20086;-69
2020/12/01 02:12:05;;;;;;;18.23;11.18;;;5.70;86.00;;;;;;5090906;28;20063;-69
2020/12/01 02:15:00;;;;;;;17.98;11.95;;;5.70;86.20;;;;;;5090984;28;20048;-69
2020/12/01 02:17:46;;;;;;;18.48;11.18;;;5.70;86.60;;;;;;5092135;28;20127;-69
2020/12/01 02:20:36;;;;;;;21.40;12.98;;;5.70;86.20;;;;;;5090759;28;20024;-69
2020/12/01 02:23:02;;;;;;;19.70;12.73;;;5.70;86.00;;;;;;5096280;28;20023;-69
2020/12/01 02:25:28;;;;;;;20.38;12.18;;;5.70;86.10;;;;;;5092617;28;20034;-69
2020/12/01 02:27:57;;;;;;;19.23;11.75;;;5.70;86.10;;;;;;5109693;28;20027;-69
2020/12/01 02:30:23;;;;;;;21.50;12.40;;;5.70;86.10;;;;;;5084351;28;20024;-69
2020/12/01 02:32:57;;;;;;;20.90;13.32;;;5.60;86.20;;;;;;5090955;28;20498;-69
2020/12/01 02:35:23;;;;;;;20.98;12.20;;;5.60;86.00;;;;;;5124805;28;20034;-69
2020/12/01 02:37:48;;;;;;;20.10;12.68;;;5.70;86.10;;;;;;5116504;28;20020;-69
2020/12/01 02:40:17;;;;;;;20.23;12.88;;;5.70;86.00;;;;;;5098145;28;20604;-69
2020/12/01 02:42:43;;;;;;;19.13;12.40;;;5.70;86.00;;;;;;5111483;28;20031;-69
2020/12/01 02:45:10;;;;;;;22.58;12.77;;;5.60;86.10;;;;;;5088735;28;20024;-69
2020/12/01 02:47:35;;;;;;;21.08;13.63;;;5.60;86.10;;;;;;5125259;28;20023;-69
2020/12/01 02:50:01;;;;;;;16.98;11.70;;;5.60;86.00;;;;;;5096939;28;20077;-69
2020/12/01 02:52:26;;;;;;;19.13;12.70;;;5.60;86.00;;;;;;5090728;28;20051;-70
2020/12/01 02:54:52;;;;;;;23.27;13.13;;;5.60;86.00;;;;;;5102783;28;20040;-69
2020/12/01 02:57:20;;;;;;;20.70;13.40;;;5.60;86.00;;;;;;5113781;28;20503;-70
2020/12/01 02:59:46;;;;;;;22.10;13.45;;;5.60;86.00;;;;;;5095899;28;20042;-69
2020/12/01 03:02:12;;;;;;;21.48;13.00;;;5.60;86.00;;;;;;5107559;28;20016;-69
2020/12/01 03:04:37;;;;;;;21.05;13.07;;;5.60;86.20;;;;;;5095829;28;20059;-68
2020/12/01 03:07:03;;;;;;;20.05;12.85;;;5.60;86.30;;;;;;5099571;28;20036;-68
2020/12/01 03:09:28;;;;;;;17.73;12.32;;;5.60;86.40;;;;;;5104003;28;20024;-69
2020/12/01 03:11:57;;;;;;;24.67;14.30;;;5.60;86.40;;;;;;5113385;28;20023;-69
2020/12/01 03:14:23;;;;;;;22.15;13.88;;;5.60;86.30;;;;;;5103495;28;20130;-69
2020/12/01 03:16:49;;;;;;;20.83;13.50;;;5.60;86.30;;;;;;5094282;28;20028;-69
2020/12/01 03:19:16;;;;;;;20.77;13.77;;;5.60;86.30;;;;;;5094085;28;20035;-69
2020/12/01 03:21:41;;;;;;;20.23;14.13;;;5.70;86.30;;;;;;5094553;28;20028;-69
2020/12/01 03:24:07;;;;;;;19.90;13.98;;;5.70;86.40;;;;;;5083216;28;20076;-69
2020/12/01 03:26:32;;;;;;;22.60;14.15;;;5.70;86.40;;;;;;5108408;28;20024;-69
2020/12/01 03:28:58;;;;;;;22.33;14.18;;;5.70;86.30;;;;;;5098399;28;20020;-69
2020/12/01 03:31:23;;;;;;;23.52;14.23;;;5.70;86.20;;;;;;5092055;28;20472;-69
2020/12/01 03:33:49;;;;;;;24.25;14.60;;;5.70;86.20;;;;;;5086796;28;20064;-69
2020/12/01 03:36:17;;;;;;;22.65;14.02;;;5.70;86.20;;;;;;5113621;28;20023;-70
2020/12/01 03:38:43;;;;;;;22.13;14.98;;;5.70;86.10;;;;;;5110034;28;20032;-69
2020/12/01 03:41:08;;;;;;;24.17;15.20;;;5.70;86.20;;;;;;5112754;28;20103;-70
2020/12/01 03:43:34;;;;;;;24.08;14.35;;;5.70;86.20;;;;;;5095503;28;20119;-69
2020/12/01 03:46:00;;;;;;;22.15;14.65;;;5.70;86.30;;;;;;5112120;28;20526;-67
2020/12/01 03:48:26;;;;;;;24.00;14.68;;;5.70;86.40;;;;;;5110770;28;20031;-67
2020/12/01 03:50:51;;;;;;;22.90;14.70;;;5.70;86.60;;;;;;5093896;28;20157;-67
2020/12/01 03:53:17;;;;;;;23.33;14.88;;;5.70;86.60;;;;;;5093037;28;20471;-67
2020/12/01 03:55:42;;;;;;;28.92;16.25;;;5.70;86.80;;;;;;5111238;28;20036;-67
2020/12/01 03:58:07;;;;;;;25.15;16.10;;;5.70;86.90;;;;;;5113974;28;20051;-67
2020/12/01 04:00:33;;;;;;;23.77;15.45;;;5.70;86.90;;;;;;5094520;28;20042;-67
2020/12/01 04:03:17;;;;;;;25.77;15.77;;;5.70;87.00;;;;;;5093657;28;20655;-68
2020/12/01 04:05:42;;;;;;;26.95;16.40;;;5.70;87.10;;;;;;5093521;28;20028;-68
2020/12/01 04:08:10;;;;;;;27.38;16.73;;;5.70;87.40;;;;;;5092939;28;20024;-66
2020/12/01 04:10:36;;;;;;;27.27;16.60;;;5.70;87.60;;;;;;5110807;28;20061;-66
2020/12/01 04:13:03;;;;;;;25.38;16.15;;;5.70;87.70;;;;;;5113127;28;20032;-66
2020/12/01 04:15:28;;;;;;;27.02;16.33;;;5.80;87.80;;;;;;5109271;28;20023;-66
2020/12/01 04:17:54;;;;;;;27.27;16.20;;;5.80;87.90;;;;;;5112791;28;20031;-66
2020/12/01 04:20:20;;;;;;;29.15;17.77;;;5.80;87.90;;;;;;5111800;28;20034;-66
2020/12/01 04:22:46;;;;;;;29.08;17.35;;;5.80;88.00;;;;;;5103956;28;20028;-67
2020/12/01 04:25:15;;;;;;;28.58;16.38;;;5.80;88.30;;;;;;5074470;28;20024;-66
2020/12/01 04:27:40;;;;;;;29.33;18.08;;;5.80;88.50;;;;;;5093519;28;20396;-67
2020/12/01 04:30:06;;;;;;;30.33;18.08;;;5.80;88.70;;;;;;5108236;28;20023;-67
2020/12/01 04:32:32;;;;;;;27.08;17.88;;;5.80;88.80;;;;;;5112650;28;20036;-67
2020/12/01 04:34:57;;;;;;;29.83;18.15;;;5.80;88.80;;;;;;5099968;28;20028;-67
2020/12/01 04:37:23;;;;;;;28.42;19.23;;;5.80;88.80;;;;;;5093274;28;20024;-67
2020/12/01 04:39:48;;;;;;;28.63;17.02;;;5.80;88.70;;;;;;5084341;28;20383;-67
2020/12/01 04:42:19;;;;;;;29.33;17.83;;;5.90;88.80;;;;;;5112369;28;20525;-66
2020/12/01 04:45:08;;;;;;;29.23;18.52;;;5.90;88.80;;;;;;5101662;28;20547;-67
2020/12/01 04:47:42;;;;;;;26.60;17.55;;;5.90;88.90;;;;;;5092815;28;20028;-66
2020/12/01 04:50:11;;;;;;;29.08;18.45;;;5.80;88.90;;;;;;5105088;28;20127;-67
2020/12/01 04:52:55;;;;;;;32.42;18.67;;;5.80;89.50;;;;;;5102796;28;20104;-67
2020/12/01 04:55:36;;;;;;;29.73;19.08;;;5.80;89.00;;;;;;5106495;28;20123;-68
2020/12/01 04:58:55;;;;;;;33.53;18.42;;;5.80;89.10;;;;;;5076283;28;20107;-67
2020/12/01 05:01:59;;;;;;;27.75;17.92;;;5.80;89.10;;;;;;5095142;28;20106;-67
2020/12/01 05:04:29;;;;;;;27.77;17.85;;;5.80;89.10;;;;;;5109849;28;20076;-67
2020/12/01 05:07:41;;;;;;;33.83;19.55;;;5.80;89.30;;;;;;5103573;28;20043;-67
2020/12/01 05:10:12;;;;;;;30.33;18.02;;;5.80;89.20;;;;;;5104523;28;20051;-67
2020/12/01 05:12:42;;;;;;;32.13;17.73;;;5.80;89.30;;;;;;5107600;28;20036;-67
2020/12/01 05:15:19;;;;;;;33.97;19.25;;;5.80;89.30;;;;;;5099126;28;20040;-67
2020/12/01 05:18:10;;;;;;;30.55;18.08;;;5.80;89.40;;;;;;5092133;28;20031;-67
2020/12/01 05:20:47;;;;;;;30.58;18.45;;;5.80;89.50;;;;;;5103469;28;20030;-67
2020/12/01 05:23:16;;;;;;;30.25;18.48;;;5.80;89.50;;;;;;5112679;28;20059;-67
2020/12/01 05:25:41;;;;;;;32.70;19.35;;;5.80;89.60;;;;;;5094878;28;20024;-67
2020/12/01 05:28:19;;;;;;;31.15;18.85;;;5.80;89.60;;;;;;5100185;28;20182;-68
2020/12/01 05:30:44;;;;;;;30.88;18.63;;;5.90;89.60;;;;;;5099598;28;20141;-67
2020/12/01 05:33:22;;;;;;;31.23;19.08;;;5.80;89.50;;;;;;5091979;28;20377;-67
2020/12/01 05:36:15;;;;;;;28.33;17.77;;;5.90;89.50;;;;;;5105738;28;20145;-67
2020/12/01 05:38:41;;;;;;;32.50;19.10;;;5.90;89.50;;;;;;5112225;28;20032;-67
2020/12/01 05:41:21;;;;;;;32.75;19.33;;;5.90;89.40;;;;;;5091523;28;20020;-68
2020/12/01 05:43:57;;;;;;;34.47;20.10;;;5.90;89.40;;;;;;5110083;28;20441;-68
2020/12/01 05:46:32;;;;;;;33.60;19.63;;;5.90;89.40;;;;;;5108128;28;20038;-67
2020/12/01 05:49:03;;;;;;;35.08;19.30;;;5.80;89.50;;;;;;5091601;28;20035;-66
2020/12/01 05:51:44;;;;;;;30.42;19.67;;;5.80;89.50;;;;;;5111957;28;20027;-67
2020/12/01 05:54:22;;;;;;;33.40;20.50;;;5.80;89.60;;;;;;5103781;28;20779;-67
2020/12/01 05:56:53;;;;;;;32.88;19.90;;;5.80;89.70;;;;;;5112244;28;20035;-67
2020/12/01 05:59:22;;;;;;;32.05;19.83;;;5.80;89.70;;;;;;5097355;28;20111;-67
2020/12/01 06:01:52;;;;;;;34.10;20.63;;;5.80;89.80;;;;;;5091572;28;20036;-67
2020/12/01 06:04:22;;;;;;;35.53;19.90;;;5.80;89.80;;;;;;5092715;28;20063;-67
2020/12/01 06:07:06;;;;;;;34.97;20.88;;;5.80;89.90;;;;;;5091708;28;20031;-68
2020/12/01 06:09:53;;;;;;;35.00;21.48;;;5.80;89.80;;;;;;5091523;28;20024;-67
2020/12/01 06:12:31;;;;;;;37.67;21.73;;;5.80;89.70;;;;;;5091359;28;20097;-66
2020/12/01 06:15:04;;;;;;;32.85;21.15;;;5.70;89.90;;;;;;5097435;28;20035;-67
2020/12/01 06:17:46;;;;;;;34.47;20.25;;;5.70;90.00;;;;;;5109830;28;20055;-67
2020/12/01 06:20:34;;;;;;;33.00;20.15;;;5.70;90.10;;;;;;5108946;28;20032;-67
2020/12/01 06:23:25;;;;;;;37.85;20.60;;;5.70;90.00;;;;;;5098046;28;20121;-67
2020/12/01 06:26:28;;;;;;;36.17;20.42;;;5.70;90.00;;;;;;5106193;28;20479;-67
2020/12/01 06:29:29;;;;;;;33.20;19.95;;;5.70;90.10;;;;;;5092591;28;20032;-67
2020/12/01 06:32:09;;;;;;;33.00;20.20;;;5.70;90.10;;;;;;5054694;28;20111;-67
2020/12/01 06:35:20;;;;;;;35.28;20.45;;;5.70;90.10;;;;;;5114553;28;20035;-67
2020/12/01 06:38:27;;;;;;;36.20;21.08;;;5.70;90.10;;;;;;5105690;28;20024;-67
2020/12/01 06:41:15;;;;;;;32.80;19.73;;;5.70;90.10;;;;;;5107614;28;20031;-68
2020/12/01 06:43:45;;;;;;;34.97;20.27;;;5.80;90.20;;;;;;5088093;28;20115;-67
2020/12/01 06:46:45;;;;;;;40.55;21.55;;;5.80;90.20;;;;;;5098656;28;20111;-67
2020/12/01 06:49:15;;;;;;;36.35;20.50;;;5.70;90.20;;;;;;5094739;28;20032;-67
2020/12/01 06:51:48;;;;;;;35.47;20.85;;;5.80;90.20;;;;;;5109498;28;20020;-68
2020/12/01 06:54:15;;;;;;;34.63;20.75;;;5.80;90.30;;;;;;5076037;28;20044;-67
2020/12/01 06:56:41;;;;;;;35.70;20.13;;;5.80;90.30;;;;;;5112229;28;20032;-67
2020/12/01 06:59:12;;;;;;;35.05;19.55;;;5.80;90.30;;;;;;5115154;28;20059;-67
2020/12/01 07:01:39;;;;;;;35.60;20.83;;;5.80;90.30;;;;;;5094774;28;20080;-66
2020/12/01 07:04:17;;;;;;;35.67;20.42;;;5.80;90.40;;;;;;5094476;28;20036;-67
2020/12/01 07:06:55;;;;;;;33.70;20.25;;;5.80;90.40;;;;;;5094106;28;20032;-66
2020/12/01 07:09:44;;;;;;;36.05;20.85;;;5.80;90.40;;;;;;5094760;28;20472;-67
2020/12/01 07:12:13;;;;;;;32.75;18.63;;;5.90;90.40;;;;;;5098292;28;20391;-67
2020/12/01 07:14:44;;;;;;;36.83;19.75;;;5.90;90.40;;;;;;5109565;28;20036;-67
2020/12/01 07:17:38;;;;;;;39.15;22.08;;;5.90;90.30;;;;;;5095022;28;20024;-67
2020/12/01 07:20:12;;;;;;;32.85;19.48;;;5.90;90.30;;;;;;5070793;28;20071;-67
2020/12/01 07:22:48;;;;;;;31.55;19.45;;;5.90;90.30;;;;;;5094640;28;20035;-66
2020/12/01 07:25:31;;;;;;;34.90;20.75;;;5.90;90.30;;;;;;5096311;28;20442;-68
2020/12/01 07:28:23;;;;;;;36.58;20.33;;;5.90;90.40;;;;;;5114106;28;20379;-69
2020/12/01 07:30:56;;;;;;;34.63;20.60;;;5.80;90.40;;;;;;5107739;28;20101;-67
2020/12/01 07:33:32;;;;;;;36.05;21.10;;;5.80;90.40;;;;;;5094118;28;20504;-67
2020/12/01 07:36:26;;;;;;;34.92;20.27;;;5.80;90.40;;;;;;5103320;28;20027;-67
2020/12/01 07:39:07;;;;;;;35.03;21.88;;;5.80;90.40;;;;;;5091562;28;20522;-66
2020/12/01 07:41:32;;;;;;;32.78;19.25;;;5.90;90.40;;;;;;5103325;28;20028;-67
2020/12/01 07:44:08;;;;;;;36.80;20.45;;;5.90;90.50;;;;;;5106992;28;20031;-66
2020/12/01 07:49:20;;;;;;;38.90;21.13;;;5.90;90.40;;;;;;5110742;27;20651;-67
2020/12/01 07:51:47;;;;;;;37.03;21.05;;;5.90;90.40;;;;;;5102196;28;20094;-68
2020/12/01 07:54:23;;;;;;;33.15;20.08;;;6.00;90.50;;;;;;5100786;28;20468;-67
2020/12/01 07:56:48;;;;;;;33.13;18.48;;;5.90;90.40;;;;;;5108976;28;20062;-68
2020/12/01 07:59:14;;;;;;;30.38;18.50;;;6.00;90.40;;;;;;5102271;28;20051;-68
2020/12/01 08:01:41;;;;;;;33.00;18.83;;;6.00;90.40;;;;;;5113523;27;20023;-68
2020/12/01 08:04:13;;;;;;;32.63;19.98;;;6.10;90.40;;;;;;5100805;28;20031;-68
2020/12/01 08:06:39;;;;;;;34.13;19.45;;;6.10;90.30;;;;;;5108254;28;20028;-68
2020/12/01 08:09:20;;;;;;;32.47;18.27;;;6.10;90.30;;;;;;5095596;28;20032;-68
2020/12/01 08:11:47;;;;;;;36.67;19.50;;;6.10;90.30;;;;;;5102063;28;20115;-68
2020/12/01 08:14:16;;;;;;;33.72;19.45;;;6.20;90.30;;;;;;5102135;28;20621;-68
2020/12/01 08:16:43;;;;;;;30.92;18.75;;;6.20;90.30;;;;;;5107412;28;20714;-68
2020/12/01 08:19:12;;;;;;;34.85;19.77;;;6.30;90.20;;;;;;5110961;28;20036;-68
2020/12/01 08:21:41;;;;;;;34.45;20.15;;;6.30;90.20;;;;;;5092065;28;20714;-68
2020/12/01 08:24:13;;;;;;;30.30;18.83;;;6.30;90.20;;;;;;5093120;28;20020;-69
2020/12/01 08:26:40;;;;;;;30.73;18.85;;;6.30;90.10;;;;;;5100945;28;20062;-68
2020/12/01 08:29:21;;;;;;;31.02;19.02;;;6.40;90.10;;;;;;5109193;28;20031;-68
2020/12/01 08:31:59;;;;;;;31.63;18.88;;;6.40;90.00;;;;;;5099025;28;20058;-68
2020/12/01 08:34:40;;;;;;;30.80;18.00;;;6.40;90.00;;;;;;5098670;28;20028;-68
2020/12/01 08:37:25;;;;;;;30.83;18.38;;;6.50;90.10;;;;;;5106738;28;20024;-68
2020/12/01 08:39:56;;;;;;;29.38;16.45;;;6.50;90.00;;;;;;5092429;28;20082;-68
2020/12/01 08:42:32;;;;;;;30.83;18.08;;;6.50;90.00;;;;;;5104936;27;20293;-68
2020/12/01 08:45:13;;;;;;;28.67;17.98;;;6.50;90.00;;;;;;5122263;27;20137;-68
2020/12/01 08:47:44;;;;;;;28.50;16.55;;;6.60;89.80;;;;;;5096872;27;20032;-68
2020/12/01 08:50:23;;;;;;;28.77;16.95;;;6.60;89.70;;;;;;5098786;28;20085;-70
2020/12/01 08:52:49;;;;;;;27.30;16.75;;;6.60;89.60;;;;;;5093240;28;20491;-67
2020/12/01 08:55:24;;;;;;;31.27;18.10;;;6.60;89.40;;;;;;5091218;28;20046;-67
2020/12/01 08:57:59;;;;;;;28.25;17.88;;;6.70;89.30;;;;;;5099893;28;20636;-67
2020/12/01 09:00:25;;;;;;;28.13;16.23;;;6.70;89.00;;;;;;5108095;28;20039;-67
2020/12/01 09:02:51;;;;;;;29.92;17.52;;;6.70;89.00;;;;;;5101792;28;20515;-67
2020/12/01 09:05:23;;;;;;;28.98;17.60;;;6.70;89.20;;;;;;5100202;28;20039;-67
2020/12/01 09:07:56;;;;;;;27.95;16.80;;;6.70;88.90;;;;;;5094927;28;20032;-68
2020/12/01 09:10:29;;;;;;;28.92;16.63;;;6.70;88.80;;;;;;5075179;28;20028;-68
2020/12/01 09:13:08;;;;;;;32.50;16.70;;;6.80;88.60;;;;;;5102819;28;20050;-68
2020/12/01 09:15:42;;;;;;;29.83;16.75;;;6.80;88.50;;;;;;5108742;28;20031;-68
2020/12/01 09:21:52;;;;;;;26.15;15.38;;;6.80;88.00;;;;;;5101453;28;20031;-68
2020/12/01 09:24:02;;;;;;;26.25;15.90;;;6.90;88.20;;;;;;5091430;28;20426;-67
2020/12/01 09:26:29;;;;;;;27.80;16.42;;;6.90;88.10;;;;;;5084768;28;20169;-67
2020/12/01 09:28:55;;;;;;;29.25;16.42;;;6.90;88.00;;;;;;5074477;28;20115;-68
2020/12/01 09:31:23;;;;;;;27.80;16.02;;;6.90;87.90;;;;;;5102073;28;20518;-69
2020/12/01 09:33:49;;;;;;;26.58;15.30;;;6.90;87.80;;;;;;5102386;28;20050;-69
2020/12/01 09:36:23;;;;;;;26.42;16.23;;;7.00;87.70;;;;;;5109042;28;20172;-69
2020/12/01 09:38:49;;;;;;;29.17;16.33;;;7.00;87.50;;;;;;5098675;28;20027;-69
2020/12/01 09:41:20;;;;;;;27.02;16.08;;;7.00;87.60;;;;;;5094914;28;20032;-68
2020/12/01 09:43:56;;;;;;;27.50;15.57;;;7.00;87.40;;;;;;5091596;28;20055;-72
2020/12/01 09:46:30;;;;;;;27.27;16.00;;;7.00;87.50;;;;;;5081920;28;20118;-71
2020/12/01 09:48:55;;;;;;;27.42;16.02;;;7.00;87.50;;;;;;5091832;28;20038;-71
2020/12/01 09:51:21;;;;;;;29.00;16.75;;;7.10;87.20;;;;;;5095801;28;20472;-71
2020/12/01 09:54:01;;;;;;;27.13;16.63;;;7.10;87.10;;;;;;5091501;28;20052;-70
2020/12/01 09:56:43;;;;;;;25.70;15.63;;;7.10;87.10;;;;;;5089719;28;20012;-69
2020/12/01 09:59:29;;;;;;;26.00;15.15;;;7.10;87.10;;;;;;5095719;28;20430;-72
2020/12/01 10:07:50;;;;;;;26.13;15.93;;;7.10;86.80;;;;;;5100423;28;20036;-69
2020/12/01 10:12:51;;;;;;;26.55;15.07;;;7.20;87.40;;;;;;5095533;28;20070;-69
2020/12/01 10:15:52;;;;;;;27.50;16.60;;;7.20;86.90;;;;;;5091108;28;20421;-68
2020/12/01 10:18:36;;;;;;;26.70;16.02;;;7.20;86.80;;;;;;5091393;28;20030;-69
2020/12/01 10:30:23;;;;;;;25.60;15.98;;;7.30;86.10;;;;;;5094047;28;20024;-69
2020/12/01 10:34:43;;;;;;;29.27;18.75;;;7.30;85.90;;;;;;5091252;28;20086;-69
2020/12/01 10:37:09;;;;;;;27.65;16.50;;;7.30;85.70;;;;;;5091554;28;20515;-69
2020/12/01 10:39:35;;;;;;;25.23;15.93;;;7.30;85.60;;;;;;5073776;28;20115;-69
2020/12/01 10:42:09;;;;;;;25.30;15.02;;;7.40;85.60;;;;;;5091139;28;20017;-69
2020/12/01 10:44:35;;;;;;;23.93;15.10;;;7.40;85.40;;;;;;5094401;28;20012;-69
2020/12/01 10:47:00;;;;;;;24.90;15.27;;;7.50;85.30;;;;;;5092121;28;20458;-69
2020/12/01 10:49:26;;;;;;;26.17;16.50;;;7.50;85.20;;;;;;5100070;28;20066;-69
2020/12/01 10:51:52;;;;;;;26.30;16.30;;;7.50;85.00;;;;;;5091099;28;20024;-70
2020/12/01 10:54:18;;;;;;;26.25;16.65;;;7.50;84.80;;;;;;5096942;28;20031;-69
2020/12/01 10:56:48;;;;;;;24.23;16.05;;;7.50;84.70;;;;;;5110574;28;20031;-69
2020/12/01 10:59:13;;;;;;;27.27;16.52;;;7.50;84.70;;;;;;5099334;28;20559;-69
2020/12/01 11:01:39;;;;;;;26.67;15.57;;;7.50;84.50;;;;;;5099840;28;20111;-70
2020/12/01 11:04:04;;;;;;;26.17;16.80;;;7.50;84.40;;;;;;5104673;28;20118;-69
2020/12/01 11:06:31;;;;;;;23.15;14.77;;;7.50;84.30;;;;;;5105536;28;20422;-69
2020/12/01 11:08:56;;;;;;;23.70;14.90;;;7.50;84.10;;;;;;5101230;28;20078;-69
2020/12/01 11:11:22;;;;;;;25.52;15.95;;;7.50;84.10;;;;;;5103093;28;20483;-69
2020/12/01 11:13:47;;;;;;;27.45;16.17;;;7.50;84.00;;;;;;5086366;28;20403;-70
2020/12/01 11:16:13;;;;;;;24.00;15.43;;;7.50;84.20;;;;;;5090836;28;20028;-70
2020/12/01 11:18:40;;;;;;;23.27;15.02;;;7.50;84.30;;;;;;5095061;28;20036;-70
2020/12/01 11:21:05;;;;;;;23.55;15.48;;;7.50;84.10;;;;;;5093759;28;20023;-69
2020/12/01 11:23:31;;;;;;;23.13;14.45;;;7.60;84.20;;;;;;5094341;28;20028;-69
2020/12/01 11:25:56;;;;;;;26.50;15.85;;;7.60;84.20;;;;;;5104263;28;20494;-68
2020/12/01 11:28:25;;;;;;;25.45;15.00;;;7.70;83.90;;;;;;5108751;28;20024;-69
2020/12/01 11:30:50;;;;;;;25.23;15.35;;;7.80;83.70;;;;;;5106086;28;20035;-69
2020/12/01 11:33:16;;;;;;;24.00;16.10;;;7.80;83.80;;;;;;5094721;28;20106;-68
2020/12/01 11:35:42;;;;;;;21.70;15.23;;;7.80;83.40;;;;;;5108479;28;20024;-68
2020/12/01 11:38:07;;;;;;;23.08;14.63;;;7.80;83.50;;;;;;5094549;28;20028;-68
2020/12/01 11:40:33;;;;;;;25.23;16.20;;;7.80;83.50;;;;;;5096010;28;20028;-68
2020/12/01 11:42:58;;;;;;;23.88;14.95;;;7.80;83.20;;;;;;5093468;28;20529;-68
2020/12/01 11:45:25;;;;;;;26.15;14.98;;;7.90;83.20;;;;;;5084605;28;20062;-68
2020/12/01 11:47:51;;;;;;;23.60;14.90;;;7.80;83.10;;;;;;5102070;28;20032;-68
2020/12/01 11:50:17;;;;;;;26.02;15.43;;;7.90;82.80;;;;;;5105534;28;20027;-68
2020/12/01 11:52:43;;;;;;;22.25;14.85;;;7.90;82.80;;;;;;5098164;28;20062;-68
2020/12/01 11:55:08;;;;;;;22.48;15.90;;;7.90;82.80;;;;;;5104302;28;20054;-68
2020/12/01 11:57:34;;;;;;;24.25;15.43;;;7.90;82.40;;;;;;5103417;28;20027;-68
2020/12/01 11:59:59;;;;;;;24.42;15.23;;;7.90;82.30;;;;;;5099561;28;20041;-68
2020/12/01 12:02:25;;;;;;;25.70;14.68;;;7.90;82.30;;;;;;5100905;28;20027;-68
2020/12/01 12:04:50;;;;;;;23.17;15.10;;;8.00;82.10;;;;;;5103987;28;20028;-68
2020/12/01 12:07:16;;;;;;;28.85;15.95;;;8.00;82.10;;;;;;5073205;28;20028;-68
2020/12/01 12:09:41;;;;;;;23.63;14.88;;;8.10;81.80;;;;;;5098333;28;20024;-68
2020/12/01 12:12:07;;;;;;;22.00;14.55;;;8.10;81.80;;;;;;5104528;28;20027;-67
2020/12/01 12:14:32;;;;;;;24.85;16.08;;;8.10;81.70;;;;;;5101508;28;20122;-68
2020/12/01 12:16:58;;;;;;;23.42;14.77;;;8.10;81.50;;;;;;5100623;28;20115;-68
2020/12/01 12:19:23;;;;;;;24.88;15.20;;;8.10;81.30;;;;;;5103542;28;20068;-68
2020/12/01 12:21:48;;;;;;;25.90;15.95;;;8.10;81.40;;;;;;5107046;28;20391;-68
2020/12/01 12:24:14;;;;;;;26.38;16.40;;;8.10;81.20;;;;;;5103359;28;20024;-68
2020/12/01 12:26:39;;;;;;;26.67;17.38;;;8.10;80.70;;;;;;5106724;28;20782;-68
2020/12/01 12:29:05;;;;;;;26.08;15.70;;;8.10;81.00;;;;;;5099440;28;20032;-68
2020/12/01 12:31:30;;;;;;;25.65;16.33;;;8.10;80.90;;;;;;5103431;28;20019;-68
2020/12/01 12:33:56;;;;;;;22.33;13.93;;;8.00;81.20;;;;;;5092498;28;20045;-68
2020/12/01 12:36:23;;;;;;;28.30;16.10;;;8.00;81.20;;;;;;5104780;28;20064;-68
2020/12/01 12:38:48;;;;;;;22.85;14.25;;;8.00;81.10;;;;;;5111742;28;20036;-67
2020/12/01 12:41:13;;;;;;;26.75;15.93;;;8.00;81.30;;;;;;5111714;28;20016;-69
2020/12/01 12:43:40;;;;;;;25.13;16.75;;;8.00;81.40;;;;;;5102864;28;20029;-69
2020/12/01 12:46:06;;;;;;;23.63;15.55;;;8.00;81.10;;;;;;5108705;28;20031;-69
2020/12/01 12:48:32;;;;;;;25.25;16.27;;;7.90;81.20;;;;;;5104771;28;20073;-70
2020/12/01 12:50:57;;;;;;;25.05;15.45;;;7.90;81.30;;;;;;5100761;28;20399;-70
2020/12/01 12:53:23;;;;;;;24.23;15.52;;;7.90;81.40;;;;;;5098658;28;20051;-69
2020/12/01 12:55:49;;;;;;;26.42;15.93;;;7.80;81.50;;;;;;5098204;28;20031;-69
2020/12/01 12:58:15;;;;;;;28.38;16.58;;;7.80;81.60;;;;;;5098555;28;20745;-70
2020/12/01 13:00:40;;;;;;;24.90;16.00;;;7.90;81.60;;;;;;5095846;28;20088;-68
2020/12/01 13:03:06;;;;;;;24.52;15.13;;;7.80;81.70;;;;;;5091433;28;20512;-68
2020/12/01 13:05:31;;;;;;;23.27;15.13;;;7.80;82.00;;;;;;5099541;28;20028;-68
2020/12/01 13:07:57;;;;;;;23.65;16.25;;;7.80;82.00;;;;;;5104857;28;20035;-69
2020/12/01 13:10:24;;;;;;;28.95;16.00;;;7.80;82.10;;;;;;5096931;28;20109;-69
2020/12/01 13:12:49;;;;;;;22.40;15.07;;;7.80;82.20;;;;;;5098384;28;20100;-69
2020/12/01 13:15:16;;;;;;;22.42;14.63;;;7.80;82.20;;;;;;5107323;28;20068;-69
2020/12/01 13:17:44;;;;;;;22.80;14.88;;;7.80;82.30;;;;;;5092150;28;21238;-69
2020/12/01 13:20:30;;;;;;;23.90;14.55;;;7.80;82.20;;;;;;5092083;28;20043;-69